createdAt,value
2022-10-19T00:02:08.607Z,13.40
2022-10-19T00:05:11.678Z,13.37
2022-10-19T00:08:14.196Z,13.31
2022-10-19T00:11:16.995Z,13.30
2022-10-19T00:14:22.499Z,13.26
2022-10-19T00:17:25.439Z,13.24
2022-10-19T00:20:36.014Z,13.19
2022-10-19T00:23:39.022Z,13.17
2022-10-19T00:26:41.451Z,13.13
2022-10-19T00:29:44.333Z,13.11
2022-10-19T00:32:48.083Z,13.03
2022-10-19T00:35:52.363Z,13.01
2022-10-19T00:38:55.666Z,12.98
2022-10-19T00:41:58.848Z,12.94
2022-10-19T00:45:05.636Z,12.98
2022-10-19T00:48:10.461Z,12.99
2022-10-19T00:51:13.600Z,12.96
2022-10-19T00:54:17.782Z,12.92
2022-10-19T00:57:20.458Z,12.88
2022-10-19T01:00:23.449Z,12.83
2022-10-19T01:03:25.993Z,12.83
2022-10-19T01:06:29.661Z,12.78
2022-10-19T01:09:32.203Z,12.70
2022-10-19T01:12:58.542Z,12.66
2022-10-19T01:16:15.608Z,12.55
2022-10-19T01:19:46.487Z,12.50
2022-10-19T01:23:17.132Z,12.46
2022-10-19T01:26:44.740Z,12.38
2022-10-19T01:30:16.846Z,12.38
2022-10-19T01:33:31.820Z,12.31
2022-10-19T01:36:45.420Z,12.33
2022-10-19T01:39:55.468Z,12.36
2022-10-19T01:43:20.138Z,12.36
2022-10-19T01:46:44.053Z,12.38
2022-10-19T01:50:11.693Z,12.43
2022-10-19T01:53:18.277Z,12.43
2022-10-19T01:56:24.844Z,12.40
2022-10-19T01:59:27.985Z,12.36
2022-10-19T02:02:31.056Z,12.33
2022-10-19T02:05:34.773Z,12.34
2022-10-19T02:08:49.224Z,12.34
2022-10-19T02:11:57.271Z,12.40
2022-10-19T02:15:07.716Z,12.39
2022-10-19T02:18:13.691Z,12.47
2022-10-19T02:21:16.460Z,12.49
2022-10-19T02:24:19.368Z,12.47
2022-10-19T02:27:22.077Z,12.55
2022-10-19T02:30:25.450Z,12.56
2022-10-19T02:33:29.086Z,12.56
2022-10-19T02:36:32.222Z,12.65
2022-10-19T02:39:35.072Z,12.73
2022-10-19T02:42:48.401Z,12.77
2022-10-19T02:46:07.058Z,12.80
2022-10-19T02:49:10.753Z,12.87
2022-10-19T02:52:14.185Z,12.87
2022-10-19T02:55:17.105Z,12.78
2022-10-19T02:58:19.783Z,12.79
2022-10-19T03:01:22.618Z,12.75
2022-10-19T03:04:25.347Z,12.76
2022-10-19T03:07:28.512Z,12.74
2022-10-19T03:10:31.135Z,12.74
2022-10-19T03:13:34.093Z,12.74
2022-10-19T03:16:36.595Z,12.72
2022-10-19T03:19:39.957Z,12.71
2022-10-19T03:22:42.446Z,12.69
2022-10-19T03:25:45.323Z,12.69
2022-10-19T03:28:49.552Z,12.68
2022-10-19T03:31:52.525Z,12.64
2022-10-19T03:34:55.110Z,12.65
2022-10-19T03:37:57.935Z,12.70
2022-10-19T03:41:00.719Z,12.89
2022-10-19T03:44:04.052Z,13.02
2022-10-19T03:47:06.566Z,13.18
2022-10-19T03:50:13.156Z,13.14
2022-10-19T03:53:16.007Z,13.34
2022-10-19T03:56:20.612Z,13.36
2022-10-19T03:59:24.340Z,13.31
2022-10-19T04:02:27.263Z,13.24
2022-10-19T04:05:30.101Z,13.23
2022-10-19T04:08:33.044Z,13.22
2022-10-19T04:11:36.516Z,13.12
2022-10-19T04:14:52.862Z,13.11
2022-10-19T04:17:59.023Z,13.04
2022-10-19T04:21:05.791Z,13.02
2022-10-19T04:24:11.335Z,12.96
2022-10-19T04:27:13.827Z,12.92
2022-10-19T04:30:16.678Z,12.91
2022-10-19T04:33:19.489Z,12.86
2022-10-19T04:36:22.361Z,12.85
2022-10-19T04:39:24.974Z,12.82
2022-10-19T04:42:27.782Z,12.79
2022-10-19T04:45:30.372Z,12.74
2022-10-19T04:48:34.900Z,12.63
2022-10-19T04:51:37.704Z,12.62
2022-10-19T04:54:40.555Z,12.53
2022-10-19T04:57:43.404Z,12.39
2022-10-19T05:00:47.251Z,12.27
2022-10-19T05:03:54.001Z,12.22
2022-10-19T05:06:56.865Z,12.13
2022-10-19T05:09:59.543Z,12.61
2022-10-19T05:13:02.674Z,12.76
2022-10-19T05:16:06.654Z,12.48
2022-10-19T05:19:15.529Z,12.37
2022-10-19T05:22:18.335Z,12.26
2022-10-19T05:25:21.120Z,12.17
2022-10-19T05:28:23.759Z,12.18
2022-10-19T05:31:28.559Z,12.10
2022-10-19T05:34:31.107Z,12.01
2022-10-19T05:37:34.181Z,12.05
2022-10-19T05:40:37.309Z,12.87
2022-10-19T05:43:40.975Z,12.62
2022-10-19T05:46:44.016Z,12.47
2022-10-19T05:49:48.002Z,12.35
2022-10-19T05:52:50.578Z,12.30
2022-10-19T05:55:53.445Z,12.26
2022-10-19T05:58:57.325Z,12.23
2022-10-19T06:02:00.256Z,12.25
2022-10-19T06:05:03.273Z,12.25
2022-10-19T06:08:05.949Z,12.30
2022-10-19T06:11:20.569Z,12.32
2022-10-19T06:14:23.240Z,12.37
2022-10-19T06:17:28.867Z,12.39
2022-10-19T06:20:41.000Z,12.40
2022-10-19T06:23:44.216Z,12.27
2022-10-19T06:26:46.860Z,12.42
2022-10-19T06:29:49.762Z,12.47
2022-10-19T06:32:52.499Z,12.53
2022-10-19T06:35:55.953Z,12.60
2022-10-19T06:39:02.177Z,12.63
2022-10-19T06:42:05.160Z,12.72
2022-10-19T06:45:09.159Z,12.74
2022-10-19T06:48:12.094Z,12.73
2022-10-19T06:51:14.644Z,12.92
2022-10-19T06:54:17.563Z,13.07
2022-10-19T06:57:20.125Z,13.15
2022-10-19T07:00:23.238Z,13.24
2022-10-19T07:03:26.778Z,13.39
2022-10-19T07:06:29.792Z,13.51
2022-10-19T07:09:32.361Z,13.57
2022-10-19T07:12:35.217Z,13.80
2022-10-19T07:15:37.742Z,13.92
2022-10-19T07:18:41.538Z,14.08
2022-10-19T07:21:44.920Z,14.21
2022-10-19T07:24:47.850Z,14.34
2022-10-19T07:27:50.415Z,14.42
2022-10-19T07:30:53.847Z,14.64
2022-10-19T07:34:01.790Z,14.76
2022-10-19T07:37:04.723Z,14.97
2022-10-19T07:40:08.244Z,15.10
2022-10-19T07:43:11.137Z,15.32
2022-10-19T07:46:29.113Z,15.47
2022-10-19T07:49:32.020Z,15.64
2022-10-19T07:52:36.849Z,15.85
2022-10-19T07:55:40.472Z,16.06
2022-10-19T07:58:43.153Z,16.14
2022-10-19T08:01:47.690Z,16.27
2022-10-19T08:05:10.404Z,16.27
2022-10-19T08:08:13.882Z,16.52
2022-10-19T08:11:21.175Z,16.69
2022-10-19T08:14:23.856Z,16.66
2022-10-19T08:17:26.782Z,16.86
2022-10-19T08:20:29.840Z,17.14
2022-10-19T08:23:32.689Z,17.17
2022-10-19T08:26:38.278Z,17.15
2022-10-19T08:29:41.180Z,17.29
2022-10-19T08:32:43.715Z,17.49
2022-10-19T08:35:46.539Z,17.77
2022-10-19T08:38:50.328Z,18.06
2022-10-19T08:42:00.642Z,18.44
2022-10-19T08:45:24.129Z,18.67
2022-10-19T08:48:32.910Z,18.74
2022-10-19T08:51:38.522Z,18.64
2022-10-19T08:54:51.547Z,19.03
2022-10-19T08:58:03.724Z,19.11
2022-10-19T09:01:25.588Z,19.44
2022-10-19T09:04:34.343Z,19.82
2022-10-19T09:07:45.502Z,19.86
2022-10-19T09:10:51.126Z,19.70
2022-10-19T09:14:06.403Z,20.01
2022-10-19T09:17:17.178Z,20.24
2022-10-19T09:20:23.605Z,20.56
2022-10-19T09:23:35.691Z,20.71
2022-10-19T09:26:50.478Z,21.09
2022-10-19T09:29:58.133Z,21.50
2022-10-19T09:33:02.268Z,21.51
2022-10-19T09:36:06.281Z,21.59
2022-10-19T09:39:15.469Z,21.82
2022-10-19T09:42:24.000Z,22.22
2022-10-19T09:45:51.599Z,22.45
2022-10-19T09:48:54.231Z,22.76
2022-10-19T09:51:57.111Z,22.99
2022-10-19T09:55:07.784Z,23.25
2022-10-19T09:58:14.305Z,23.44
2022-10-19T10:01:41.812Z,23.84
2022-10-19T10:04:47.518Z,23.85
2022-10-19T10:07:54.937Z,24.09
2022-10-19T10:11:07.094Z,24.03
2022-10-19T10:14:25.576Z,24.21
2022-10-19T10:17:30.617Z,24.58
2022-10-19T10:20:34.916Z,24.94
2022-10-19T10:23:38.243Z,25.10
2022-10-19T10:26:46.480Z,24.97
2022-10-19T10:33:13.231Z,24.99
2022-10-19T10:36:24.077Z,23.29
2022-10-19T10:39:28.473Z,23.61
2022-10-19T10:42:37.641Z,23.93
2022-10-19T10:45:43.132Z,24.43
2022-10-19T10:48:53.787Z,23.74
2022-10-19T10:51:58.498Z,24.10
2022-10-19T10:55:05.113Z,24.56
2022-10-19T10:58:15.835Z,24.81
2022-10-19T11:01:23.883Z,23.83
2022-10-19T11:04:38.321Z,23.72
2022-10-19T11:07:45.327Z,24.43
2022-10-19T11:10:58.641Z,24.93
2022-10-19T11:14:22.778Z,25.60
2022-10-19T11:17:28.912Z,26.19
2022-10-19T11:20:32.899Z,26.04
2022-10-19T11:23:40.919Z,26.41
2022-10-19T11:26:52.819Z,25.96
2022-10-19T11:30:08.145Z,24.52
2022-10-19T11:33:40.727Z,22.81
2022-10-19T11:37:05.843Z,21.76
2022-10-19T11:40:45.821Z,23.38
2022-10-19T11:44:25.954Z,24.49
2022-10-19T11:47:51.362Z,25.37
2022-10-19T11:51:16.830Z,25.92
2022-10-19T11:54:42.604Z,26.38
2022-10-19T11:57:59.684Z,26.17
2022-10-19T12:01:32.671Z,24.87
2022-10-19T12:04:41.401Z,25.22
2022-10-19T12:08:07.495Z,25.72
2022-10-19T12:11:38.940Z,26.11
2022-10-19T12:14:44.124Z,26.06
2022-10-19T12:17:48.598Z,25.87
2022-10-19T12:20:53.051Z,25.85
2022-10-19T12:23:57.670Z,25.77
2022-10-19T12:27:01.209Z,26.01
2022-10-19T12:30:17.911Z,26.17
2022-10-19T12:33:41.060Z,26.03
2022-10-19T12:36:53.074Z,25.67
2022-10-19T12:40:01.048Z,25.88
2022-10-19T12:43:36.744Z,25.58
2022-10-19T12:46:49.619Z,25.16
2022-10-19T12:49:56.218Z,25.28
2022-10-19T12:52:58.754Z,25.25
2022-10-19T12:56:03.033Z,25.08
2022-10-19T12:59:05.700Z,24.98
2022-10-19T13:02:25.903Z,24.73
2022-10-19T13:05:30.704Z,23.57
2022-10-19T13:08:53.871Z,23.69
2022-10-19T13:12:17.800Z,23.47
2022-10-19T13:15:34.366Z,23.48
2022-10-19T13:18:59.198Z,23.02
2022-10-19T13:22:02.121Z,22.53
2022-10-19T13:25:17.163Z,22.26
2022-10-19T13:28:29.252Z,22.18
2022-10-19T13:31:33.223Z,21.81
2022-10-19T13:34:36.336Z,21.49
2022-10-19T13:37:39.432Z,21.37
2022-10-19T13:40:49.091Z,21.23
2022-10-19T13:44:12.095Z,20.57
2022-10-19T13:47:26.830Z,20.48
2022-10-19T13:50:39.392Z,20.40
2022-10-19T13:54:10.034Z,20.11
2022-10-19T13:57:27.732Z,20.01
2022-10-19T14:00:58.687Z,19.84
2022-10-19T14:04:21.318Z,19.71
2022-10-19T14:07:33.439Z,19.54
2022-10-19T14:11:00.249Z,19.29
2022-10-19T14:14:09.518Z,19.29
2022-10-19T14:17:24.688Z,18.91
2022-10-19T14:20:38.334Z,18.85
2022-10-19T14:23:41.265Z,18.79
2022-10-19T14:26:43.908Z,18.60
2022-10-19T14:29:51.539Z,18.55
2022-10-19T14:32:58.062Z,18.43
2022-10-19T14:36:08.218Z,18.28
2022-10-19T14:39:33.702Z,18.20
2022-10-19T14:42:43.079Z,18.01
2022-10-19T14:45:45.726Z,17.88
2022-10-19T14:48:50.450Z,17.77
2022-10-19T14:51:58.148Z,17.59
2022-10-19T14:55:06.631Z,17.60
2022-10-19T14:58:13.576Z,17.08
2022-10-19T15:01:19.608Z,17.30
2022-10-19T15:04:25.252Z,16.94
2022-10-19T15:07:38.408Z,17.12
2022-10-19T15:10:44.072Z,17.00
2022-10-19T15:13:49.421Z,17.09
2022-10-19T15:17:01.133Z,16.88
2022-10-19T15:20:27.629Z,16.83
2022-10-19T15:23:46.102Z,17.22
2022-10-19T15:27:06.589Z,17.04
2022-10-19T15:30:17.629Z,16.73
2022-10-19T15:33:20.516Z,16.48
2022-10-19T15:36:23.900Z,16.33
2022-10-19T15:39:38.764Z,16.19
2022-10-19T15:42:48.798Z,16.03
2022-10-19T15:46:04.850Z,15.94
2022-10-19T15:49:16.243Z,15.85
2022-10-19T15:52:24.903Z,15.71
2022-10-19T15:55:27.403Z,15.65
2022-10-19T15:58:30.417Z,15.64
2022-10-19T16:01:33.637Z,15.48
2022-10-19T16:04:36.462Z,15.45
2022-10-19T16:07:40.770Z,15.46
2022-10-19T16:10:47.151Z,15.37
2022-10-19T16:13:50.216Z,15.38
2022-10-19T16:16:53.291Z,15.29
2022-10-19T16:19:56.103Z,15.30
2022-10-19T16:22:59.007Z,15.20
2022-10-19T16:26:01.800Z,15.08
2022-10-19T16:29:04.696Z,15.05
2022-10-19T16:32:07.445Z,14.90
2022-10-19T16:35:11.588Z,14.78
2022-10-19T16:38:14.534Z,14.73
2022-10-19T16:41:17.651Z,14.57
2022-10-19T16:44:20.171Z,14.47
2022-10-19T16:47:23.062Z,14.49
2022-10-19T16:50:29.006Z,14.43
2022-10-19T16:53:32.883Z,14.34
2022-10-19T16:56:36.653Z,14.33
2022-10-19T16:59:39.661Z,14.30
2022-10-19T17:02:44.423Z,14.28
2022-10-19T17:05:49.221Z,14.20
2022-10-19T17:09:30.197Z,14.19
2022-10-19T17:12:16.696Z,14.14
2022-10-19T17:18:43.811Z,13.93
2022-10-19T17:21:47.003Z,13.04
2022-10-19T17:24:52.284Z,13.88
2022-10-19T17:27:55.154Z,13.77
2022-10-19T17:31:14.172Z,13.72
2022-10-19T17:34:17.952Z,13.71
2022-10-19T17:37:20.804Z,13.66
2022-10-19T17:40:33.096Z,13.60
2022-10-19T17:43:37.977Z,13.60
2022-10-19T17:46:42.803Z,13.55
2022-10-19T17:49:46.038Z,13.45
2022-10-19T17:52:49.714Z,13.34
2022-10-19T17:55:52.675Z,13.33
2022-10-19T17:58:57.347Z,13.32
2022-10-19T18:02:00.343Z,13.27
2022-10-19T18:05:04.657Z,13.13
2022-10-19T18:08:08.652Z,13.00
2022-10-19T18:11:14.338Z,12.74
2022-10-19T18:14:17.297Z,12.49
2022-10-19T18:17:24.054Z,12.50
2022-10-19T18:20:32.416Z,12.62
2022-10-19T18:23:36.522Z,12.71
2022-10-19T18:26:39.700Z,12.66
2022-10-19T18:29:43.249Z,12.60
2022-10-19T18:32:49.672Z,12.52
2022-10-19T18:35:57.991Z,12.44
2022-10-19T18:39:05.587Z,12.31
2022-10-19T18:42:12.804Z,12.37
2022-10-19T18:45:16.208Z,12.28
2022-10-19T18:48:19.665Z,12.22
2022-10-19T18:51:23.964Z,12.23
2022-10-19T18:54:28.126Z,12.17
2022-10-19T18:57:31.994Z,11.92
2022-10-19T19:00:36.664Z,11.91
2022-10-19T19:03:41.666Z,11.86
2022-10-19T19:06:44.591Z,11.83
2022-10-19T19:09:47.214Z,11.73
2022-10-19T19:12:51.315Z,11.69
2022-10-19T19:15:59.041Z,11.65
2022-10-19T19:19:03.474Z,11.68
2022-10-19T19:22:08.711Z,11.66
2022-10-19T19:25:12.162Z,11.72
2022-10-19T19:28:14.751Z,11.71
2022-10-19T19:31:19.210Z,11.68
2022-10-19T19:34:22.101Z,11.58
2022-10-19T19:37:25.338Z,11.58
2022-10-19T19:40:34.419Z,11.49
2022-10-19T19:43:38.360Z,11.40
2022-10-19T19:46:40.985Z,11.33
2022-10-19T19:49:44.184Z,11.32
2022-10-19T19:52:48.617Z,11.26
2022-10-19T19:55:53.782Z,11.22
2022-10-19T19:58:58.223Z,11.24
2022-10-19T20:02:01.967Z,11.18
2022-10-19T20:05:05.364Z,11.11
2022-10-19T20:08:08.893Z,11.02
2022-10-19T20:11:13.812Z,11.07
2022-10-19T20:14:18.796Z,11.06
2022-10-19T20:17:23.866Z,11.03
2022-10-19T20:20:29.368Z,11.01
2022-10-19T20:23:33.264Z,10.95
2022-10-19T20:26:36.144Z,10.86
2022-10-19T20:29:40.818Z,10.83
2022-10-19T20:32:44.715Z,10.82
2022-10-19T20:35:48.713Z,10.77
2022-10-19T20:38:57.448Z,10.62
2022-10-19T20:42:01.652Z,10.62
2022-10-19T20:45:04.967Z,10.55
2022-10-19T20:48:08.074Z,10.56
2022-10-19T20:51:13.927Z,10.52
2022-10-19T20:54:17.004Z,10.46
2022-10-19T20:57:19.822Z,10.39
2022-10-19T21:00:22.694Z,10.32
2022-10-19T21:03:25.365Z,10.23
2022-10-19T21:06:30.436Z,10.20
2022-10-19T21:09:33.065Z,10.16
2022-10-19T21:12:36.231Z,10.15
2022-10-19T21:15:39.247Z,10.20
2022-10-19T21:18:43.004Z,10.26
2022-10-19T21:21:50.178Z,10.24
2022-10-19T21:24:53.221Z,10.22
2022-10-19T21:27:56.013Z,10.27
2022-10-19T21:31:09.407Z,10.14
2022-10-19T21:34:18.442Z,10.21
2022-10-19T21:37:21.258Z,10.16
2022-10-19T21:40:25.781Z,10.07
2022-10-19T21:43:28.977Z,9.96
2022-10-19T21:46:31.747Z,9.85
2022-10-19T21:49:34.940Z,9.75
2022-10-19T21:52:37.402Z,9.73
2022-10-19T21:55:40.222Z,9.69
2022-10-19T21:58:46.647Z,9.69
2022-10-19T22:01:49.552Z,9.63
2022-10-19T22:04:52.489Z,9.54
2022-10-19T22:07:55.106Z,9.56
2022-10-19T22:10:59.228Z,9.65
2022-10-19T22:14:02.917Z,9.64
2022-10-19T22:17:05.649Z,9.51
2022-10-19T22:20:08.779Z,9.62
2022-10-19T22:23:11.653Z,9.67
2022-10-19T22:26:15.924Z,9.69
2022-10-19T22:29:19.370Z,9.67
2022-10-19T22:32:21.921Z,9.74
2022-10-19T22:35:24.660Z,9.66
2022-10-19T22:38:28.569Z,9.55
2022-10-19T22:41:31.414Z,9.40
2022-10-19T22:44:34.061Z,9.37
2022-10-19T22:47:36.930Z,9.38
2022-10-19T22:50:41.631Z,9.27
2022-10-19T22:53:44.534Z,9.23
2022-10-19T22:56:47.085Z,9.17
2022-10-19T22:59:50.358Z,9.08
2022-10-19T23:02:52.937Z,9.11
2022-10-19T23:05:55.827Z,9.01
2022-10-19T23:08:58.380Z,9.07
2022-10-19T23:12:01.629Z,9.08
2022-10-19T23:15:04.359Z,9.16
2022-10-19T23:18:07.595Z,9.12
2022-10-19T23:21:12.575Z,9.09
2022-10-19T23:24:15.406Z,9.05
2022-10-19T23:27:17.934Z,9.07
2022-10-19T23:30:26.106Z,9.16
2022-10-19T23:33:28.668Z,8.43
2022-10-19T23:36:31.451Z,9.24
2022-10-19T23:39:34.037Z,9.24
2022-10-19T23:42:36.920Z,9.22
2022-10-19T23:45:39.698Z,9.19
2022-10-19T23:48:42.659Z,9.09
2022-10-19T23:51:45.250Z,9.05
2022-10-19T23:54:48.214Z,9.00
2022-10-19T23:57:50.829Z,8.88
